createdAt,value
2023-03-10T00:04:37.176Z,11.18
2023-03-10T00:09:38.646Z,11.08
2023-03-10T00:14:40.177Z,11.08
2023-03-10T00:19:41.615Z,11.07
2023-03-10T00:24:43.166Z,10.98
2023-03-10T00:29:44.642Z,11.01
2023-03-10T00:34:46.150Z,10.89
2023-03-10T00:39:51.648Z,10.96
2023-03-10T00:44:53.194Z,10.91
2023-03-10T00:49:54.753Z,10.80
2023-03-10T00:54:56.350Z,10.86
2023-03-10T00:59:57.857Z,10.98
2023-03-10T01:04:59.299Z,10.87
2023-03-10T01:10:00.757Z,10.80
2023-03-10T01:15:02.424Z,10.75
2023-03-10T01:20:05.205Z,10.70
2023-03-10T01:25:07.229Z,10.78
2023-03-10T01:30:10.002Z,10.75
2023-03-10T01:35:12.020Z,10.79
2023-03-10T01:40:15.456Z,10.58
2023-03-10T01:45:16.908Z,10.73
2023-03-10T01:50:19.550Z,11.01
2023-03-10T01:55:29.464Z,11.30
2023-03-10T02:00:31.082Z,11.55
2023-03-10T02:05:33.786Z,11.62
2023-03-10T02:10:36.272Z,11.60
2023-03-10T02:15:39.057Z,11.66
2023-03-10T02:21:09.833Z,11.61
2023-03-10T02:26:31.616Z,11.62
2023-03-10T02:31:33.765Z,11.48
2023-03-10T02:36:35.657Z,11.65
2023-03-10T02:41:40.036Z,11.65
2023-03-10T02:46:45.676Z,11.55
2023-03-10T02:51:47.419Z,11.64
2023-03-10T02:56:52.037Z,11.69
2023-03-10T03:01:54.348Z,11.27
2023-03-10T03:06:55.960Z,11.26
2023-03-10T03:11:57.825Z,11.23
2023-03-10T03:16:59.707Z,10.94
2023-03-10T03:22:02.006Z,10.73
2023-03-10T03:27:05.240Z,10.68
2023-03-10T03:32:07.439Z,10.88
2023-03-10T03:37:10.024Z,11.23
2023-03-10T03:42:13.804Z,10.98
2023-03-10T03:47:23.537Z,10.86
2023-03-10T03:52:25.386Z,10.52
2023-03-10T03:57:28.182Z,10.59
2023-03-10T04:02:29.863Z,10.49
2023-03-10T04:07:31.629Z,10.60
2023-03-10T04:12:34.015Z,10.81
2023-03-10T04:17:36.347Z,10.63
2023-03-10T04:22:38.275Z,10.62
2023-03-10T04:27:41.364Z,10.46
2023-03-10T04:32:43.805Z,10.44
2023-03-10T04:37:45.471Z,10.53
2023-03-10T04:42:48.774Z,10.46
2023-03-10T04:47:50.680Z,10.61
2023-03-10T04:52:52.322Z,10.44
2023-03-10T04:57:58.817Z,10.44
2023-03-10T05:03:00.606Z,10.59
2023-03-10T05:08:02.654Z,10.26
2023-03-10T05:13:05.467Z,9.98
2023-03-10T05:18:10.428Z,10.03
2023-03-10T05:23:12.066Z,9.77
2023-03-10T05:28:13.827Z,9.70
2023-03-10T05:33:16.524Z,9.61
2023-03-10T05:38:18.397Z,9.12
2023-03-10T05:43:20.344Z,9.01
2023-03-10T05:48:23.581Z,8.89
2023-03-10T05:53:25.297Z,9.02
2023-03-10T05:58:27.003Z,9.07
2023-03-10T06:03:29.298Z,9.03
2023-03-10T06:08:31.099Z,8.82
2023-03-10T06:13:32.729Z,8.86
2023-03-10T06:18:34.835Z,9.04
2023-03-10T06:23:36.882Z,9.20
2023-03-10T06:28:40.980Z,9.26
2023-03-10T06:33:42.768Z,9.36
2023-03-10T06:38:44.478Z,9.43
2023-03-10T06:43:46.328Z,9.50
2023-03-10T06:48:47.931Z,9.78
2023-03-10T06:53:49.838Z,10.05
2023-03-10T06:58:51.288Z,10.26
2023-03-10T07:03:53.688Z,10.41
2023-03-10T07:08:55.159Z,10.40
2023-03-10T07:13:56.751Z,10.38
2023-03-10T07:18:58.206Z,10.44
2023-03-10T07:23:59.725Z,10.43
2023-03-10T07:29:01.420Z,10.42
2023-03-10T07:34:03.066Z,10.17
2023-03-10T07:39:05.866Z,10.16
2023-03-10T07:44:07.557Z,10.10
2023-03-10T07:49:09.205Z,10.11
2023-03-10T07:54:13.614Z,10.13
2023-03-10T07:59:15.146Z,10.03
2023-03-10T08:04:16.816Z,9.88
2023-03-10T08:09:18.482Z,9.84
2023-03-10T08:14:21.080Z,9.59
2023-03-10T08:19:26.974Z,9.50
2023-03-10T08:24:28.536Z,9.14
2023-03-10T08:29:30.009Z,9.19
2023-03-10T08:34:33.551Z,9.22
2023-03-10T08:39:35.196Z,8.96
2023-03-10T08:44:36.824Z,9.10
2023-03-10T08:49:38.371Z,9.13
2023-03-10T08:54:39.924Z,9.43
2023-03-10T08:59:41.452Z,9.46
2023-03-10T09:04:43.481Z,9.76
2023-03-10T09:09:45.072Z,10.11
2023-03-10T09:14:47.278Z,10.23
2023-03-10T09:19:48.747Z,10.17
2023-03-10T09:24:50.210Z,10.37
2023-03-10T09:29:51.684Z,10.51
2023-03-10T09:34:53.551Z,10.57
2023-03-10T09:39:55.027Z,10.82
2023-03-10T09:45:13.211Z,11.26
2023-03-10T09:50:36.496Z,11.23
2023-03-10T09:55:47.387Z,11.19
2023-03-10T10:00:49.805Z,11.08
2023-03-10T10:05:53.150Z,11.13
2023-03-10T10:10:59.624Z,11.03
2023-03-10T10:16:33.901Z,11.15
2023-03-10T10:21:46.679Z,10.82
2023-03-10T10:26:48.418Z,10.91
2023-03-10T10:32:02.054Z,10.70
2023-03-10T10:37:21.909Z,10.63
2023-03-10T10:42:27.879Z,10.46
2023-03-10T10:47:32.268Z,10.25
2023-03-10T10:52:33.794Z,10.07
2023-03-10T10:57:37.385Z,10.03
2023-03-10T11:02:38.987Z,10.05
2023-03-10T11:07:40.647Z,9.97
2023-03-10T11:13:00.721Z,10.38
2023-03-10T11:18:33.808Z,10.34
2023-03-10T11:24:11.993Z,10.27
2023-03-10T11:29:22.850Z,10.41
2023-03-10T11:34:29.365Z,10.54
2023-03-10T11:39:51.111Z,11.02
2023-03-10T11:45:01.380Z,11.61
2023-03-10T11:50:18.449Z,11.58
2023-03-10T11:55:21.561Z,12.00
2023-03-10T12:00:34.518Z,11.87
2023-03-10T12:05:56.014Z,11.37
2023-03-10T12:11:01.133Z,11.30
2023-03-10T12:16:06.186Z,11.10
2023-03-10T12:21:28.630Z,10.95
2023-03-10T12:26:38.923Z,10.86
2023-03-10T12:31:40.409Z,10.62
2023-03-10T12:36:45.210Z,10.21
2023-03-10T12:41:48.096Z,10.29
2023-03-10T12:46:59.739Z,9.95
2023-03-10T12:52:06.996Z,9.70
2023-03-10T12:57:36.389Z,9.70
2023-03-10T13:02:51.118Z,9.74
2023-03-10T13:07:57.340Z,9.69
2023-03-10T13:13:04.272Z,9.92
2023-03-10T13:18:18.205Z,9.95
2023-03-10T13:23:34.684Z,9.88
2023-03-10T13:28:36.339Z,9.78
2023-03-10T13:33:52.307Z,9.59
2023-03-10T13:38:54.626Z,9.74
2023-03-10T13:43:56.188Z,9.88
2023-03-10T13:49:02.103Z,10.07
2023-03-10T13:54:32.608Z,10.18
2023-03-10T13:59:36.030Z,10.23
2023-03-10T14:04:43.208Z,10.25
2023-03-10T14:10:03.661Z,10.25
2023-03-10T14:15:25.333Z,10.30
2023-03-10T14:20:34.137Z,10.26
2023-03-10T14:25:35.599Z,10.22
2023-03-10T14:30:37.129Z,10.14
2023-03-10T14:35:38.629Z,10.16
2023-03-10T14:41:00.454Z,10.20
2023-03-10T14:46:02.176Z,9.89
2023-03-10T14:51:03.812Z,9.96
2023-03-10T14:56:05.920Z,10.13
2023-03-10T15:01:07.458Z,10.03
2023-03-10T15:06:13.479Z,10.18
2023-03-10T15:11:17.440Z,10.20
2023-03-10T15:16:23.027Z,9.97
2023-03-10T15:21:24.595Z,9.75
2023-03-10T15:26:26.183Z,9.62
2023-03-10T15:31:27.794Z,9.82
2023-03-10T15:36:29.262Z,11.41
2023-03-10T15:41:34.415Z,11.98
2023-03-10T15:46:35.975Z,11.29
2023-03-10T15:51:37.474Z,10.71
2023-03-10T15:56:39.613Z,10.44
2023-03-10T16:01:41.291Z,10.20
2023-03-10T16:06:42.792Z,10.09
2023-03-10T16:11:44.220Z,10.06
2023-03-10T16:16:45.702Z,9.86
2023-03-10T16:21:47.164Z,9.80
2023-03-10T16:26:48.968Z,9.67
2023-03-10T16:31:50.557Z,9.76
2023-03-10T16:36:52.033Z,9.77
2023-03-10T16:41:53.544Z,9.72
2023-03-10T16:46:55.085Z,9.82
2023-03-10T16:51:56.612Z,9.84
2023-03-10T16:56:58.088Z,9.87
2023-03-10T17:01:59.582Z,9.85
2023-03-10T17:07:01.024Z,9.76
2023-03-10T17:12:02.502Z,9.61
2023-03-10T17:17:06.532Z,9.57
2023-03-10T17:22:09.228Z,9.44
2023-03-10T17:27:10.713Z,9.38
2023-03-10T17:32:12.573Z,9.38
2023-03-10T17:37:14.078Z,9.04
2023-03-10T17:42:15.929Z,9.00
2023-03-10T17:47:17.443Z,8.93
2023-03-10T17:52:18.962Z,8.97
2023-03-10T17:57:20.880Z,8.91
2023-03-10T18:02:22.455Z,8.89
2023-03-10T18:07:24.113Z,8.83
2023-03-10T18:12:25.639Z,8.85
2023-03-10T18:17:27.151Z,9.25
2023-03-10T18:22:28.592Z,9.08
2023-03-10T18:27:33.425Z,9.18
2023-03-10T18:32:35.020Z,9.14
2023-03-10T18:37:36.527Z,9.26
2023-03-10T18:42:38.036Z,9.33
2023-03-10T18:47:39.567Z,9.37
2023-03-10T18:52:42.172Z,9.30
2023-03-10T18:57:44.533Z,9.34
2023-03-10T19:02:46.191Z,9.20
2023-03-10T19:07:47.736Z,8.71
2023-03-10T19:12:49.418Z,8.23
2023-03-10T19:17:50.971Z,7.98
2023-03-10T19:22:52.513Z,8.06
2023-03-10T19:27:53.976Z,8.10
2023-03-10T19:32:55.450Z,8.02
2023-03-10T19:37:56.994Z,8.05
2023-03-10T19:42:58.471Z,8.00
2023-03-10T19:47:59.984Z,8.10
2023-03-10T19:53:01.450Z,7.95
2023-03-10T19:58:02.891Z,7.03
2023-03-10T20:03:04.528Z,6.91
2023-03-10T20:08:06.072Z,6.97
2023-03-10T20:13:07.624Z,7.14
2023-03-10T20:18:09.126Z,7.27
2023-03-10T20:23:10.699Z,7.52
2023-03-10T20:28:13.247Z,7.59
2023-03-10T20:33:14.708Z,7.69
2023-03-10T20:38:16.332Z,7.63
2023-03-10T20:43:18.127Z,7.67
2023-03-10T20:48:19.621Z,7.71
2023-03-10T20:53:21.250Z,7.76
2023-03-10T20:58:22.717Z,7.80
2023-03-10T21:03:24.221Z,7.51
2023-03-10T21:08:25.688Z,7.61
2023-03-10T21:13:27.243Z,7.44
2023-03-10T21:18:28.692Z,7.48
2023-03-10T21:23:30.199Z,7.35
2023-03-10T21:28:42.113Z,7.43
2023-03-10T21:33:43.616Z,7.35
2023-03-10T21:38:45.295Z,7.42
2023-03-10T21:43:46.759Z,7.40
2023-03-10T21:48:48.233Z,7.12
2023-03-10T21:53:51.173Z,7.17
2023-03-10T21:58:52.728Z,6.99
2023-03-10T22:03:54.636Z,6.84
2023-03-10T22:08:56.222Z,6.80
2023-03-10T22:13:57.755Z,6.77
2023-03-10T22:18:59.270Z,6.84
2023-03-10T22:24:00.800Z,6.96
2023-03-10T22:29:02.340Z,6.86
2023-03-10T22:34:03.923Z,6.92
2023-03-10T22:39:05.377Z,6.92
2023-03-10T22:44:07.072Z,6.90
2023-03-10T22:49:08.568Z,7.15
2023-03-10T22:54:10.031Z,7.03
2023-03-10T22:59:11.539Z,6.92
2023-03-10T23:04:13.067Z,7.00
2023-03-10T23:09:14.606Z,6.91
2023-03-10T23:14:16.147Z,6.85
2023-03-10T23:19:17.591Z,6.89
2023-03-10T23:24:19.090Z,6.78
2023-03-10T23:29:20.606Z,6.74
2023-03-10T23:34:22.152Z,6.70
2023-03-10T23:39:24.089Z,6.71
2023-03-10T23:44:25.525Z,6.79
2023-03-10T23:49:27.077Z,6.88
2023-03-10T23:54:28.554Z,6.81
2023-03-10T23:59:30.054Z,6.89
